Ottawa Gatineau Airport
CYND : now visible

Airfield :











YOU CAN JOIN US ON...

 
LOGIN :

Register | Disclaimer

   EN    FR    IT 

 









Legend :    VFR   Marginal VFR   IFR   Intensive IFR   Very Intensive IFR
Visi :
Ceiling :
>= 8 km
>= 3000ft
5 to 8 km
1000 to 3000 ft
1500m to 5 km
500 to 1000 ft
800 to 1500m
200 to 500 ft
< 800m
< 200 ft
Symbols :   Thunderstorms  Fog  Heavy snow  Heavy precipitations  Wind > 20 kt






- Airport Elevation : 211 ft
- IATA code : YND


CYND - Ottawa Gatineau

CURRENT METAR :
  • 262100Z 06011KT 15SM OVC065 M04/M08 A2991 RMK SC8 SLP135

EXPIRED METARs :
  • 262000Z 07011KT 15SM FEW025 BKN090 M04/M08 A2995 RMK SC1AC6 SLP146
  • 261900Z 08009KT 15SM SCT022 BKN150 M04/M08 A2997 RMK SC4AC3 SLP154

TAF TAF CYND
Valid from the 26 at 18:00 until the 27 at 02:00 UTC


261740Z 2618/2702 08010KT P6SM BKN015 BKN040
TEMPO 2618/2621 SCT015 BKN040
FM262100 08010G20KT P6SM -SN BKN025 OVC100
TEMPO 2621/2624 11/2SM -SN OVC015
PROB30 2621/2624 3/4SM -SN VV007
FM270000 07010G20KT 11/2SM -SN SCT008 OVC012 RMK NXT FCST BY 270000Z
CZUL FIR / North America



MET'MAP, your aeronautical weather chart ! - Copyright ORBIFLY December 2007 - Disclaimer

ORBIFLY MET'MAP TEAM :

Programming & Development : Alexandra Zaïnal
Concept & original design : Baudouin d'Aumeries
Assistance for programming : Marc-Olivier Méhu
Technical & hardware support : Manuel Goepfert

Contact : metmap@orbifly.com




SOURCES & CREDITS :

   NOAA       Earth
Advisory